createdAt,value
2023-05-19T00:00:21.620Z,54.26
2023-05-19T00:02:25.953Z,54.57
2023-05-19T00:04:28.069Z,54.28
2023-05-19T00:06:31.756Z,54.12
2023-05-19T00:08:34.427Z,54.73
2023-05-19T00:10:36.158Z,54.65
2023-05-19T00:12:38.616Z,54.31
2023-05-19T00:14:40.558Z,54.86
2023-05-19T00:16:42.754Z,54.82
2023-05-19T00:18:44.479Z,54.49
2023-05-19T00:20:46.526Z,54.62
2023-05-19T00:22:48.404Z,54.68
2023-05-19T00:24:50.075Z,55.21
2023-05-19T00:26:51.657Z,55.17
2023-05-19T00:28:54.073Z,55.08
2023-05-19T00:30:57.087Z,55.25
2023-05-19T00:32:59.138Z,55.01
2023-05-19T00:35:00.903Z,55.20
2023-05-19T00:37:02.697Z,55.13
2023-05-19T00:39:04.586Z,55.01
2023-05-19T00:41:07.361Z,55.11
2023-05-19T00:43:09.028Z,54.78
2023-05-19T00:45:11.178Z,55.04
2023-05-19T00:47:13.477Z,55.10
2023-05-19T00:49:15.375Z,55.24
2023-05-19T00:51:17.695Z,55.37
2023-05-19T00:53:19.629Z,55.43
2023-05-19T00:55:28.113Z,55.20
2023-05-19T00:57:30.556Z,55.35
2023-05-19T00:59:32.269Z,55.27
2023-05-19T01:01:34.758Z,55.42
2023-05-19T01:03:37.104Z,55.42
2023-05-19T01:05:42.307Z,55.58
2023-05-19T01:07:44.655Z,55.72
2023-05-19T01:09:47.141Z,55.85
2023-05-19T01:11:49.338Z,55.65
2023-05-19T01:13:51.173Z,55.51
2023-05-19T01:16:32.050Z,55.83
2023-05-19T01:18:50.937Z,55.82
2023-05-19T01:21:05.830Z,55.84
2023-05-19T01:23:23.852Z,55.87
2023-05-19T01:25:50.658Z,55.58
2023-05-19T01:28:17.858Z,55.78
2023-05-19T01:30:31.409Z,55.97
2023-05-19T01:32:34.565Z,55.86
2023-05-19T01:34:44.278Z,55.94
2023-05-19T01:36:49.712Z,55.78
2023-05-19T01:38:54.007Z,55.74
2023-05-19T01:40:57.906Z,55.91
2023-05-19T01:43:01.506Z,55.73
2023-05-19T01:45:10.588Z,55.97
2023-05-19T01:47:12.889Z,56.75
2023-05-19T01:49:14.698Z,56.87
2023-05-19T01:51:17.006Z,56.58
2023-05-19T01:53:18.872Z,56.58
2023-05-19T01:55:23.272Z,56.60
2023-05-19T01:57:33.557Z,56.54
2023-05-19T01:59:53.848Z,57.04
2023-05-19T02:02:02.315Z,56.93
2023-05-19T02:04:27.337Z,56.97
2023-05-19T02:06:39.931Z,57.00
2023-05-19T02:08:49.447Z,57.03
2023-05-19T02:10:57.662Z,56.99
2023-05-19T02:13:04.531Z,57.08
2023-05-19T02:15:24.375Z,57.24
2023-05-19T02:17:29.277Z,57.20
2023-05-19T02:19:38.405Z,57.37
2023-05-19T02:21:40.075Z,56.94
2023-05-19T02:23:42.010Z,56.74
2023-05-19T02:25:44.327Z,56.92
2023-05-19T02:27:46.402Z,56.89
2023-05-19T02:29:48.090Z,57.17
2023-05-19T02:31:49.784Z,56.89
2023-05-19T02:33:51.418Z,57.02
2023-05-19T02:35:53.328Z,56.89
2023-05-19T02:37:55.035Z,56.84
2023-05-19T02:39:56.741Z,56.95
2023-05-19T02:41:58.582Z,56.66
2023-05-19T02:44:00.297Z,57.21
2023-05-19T02:46:01.972Z,57.05
2023-05-19T02:48:04.054Z,56.87
2023-05-19T02:50:06.359Z,57.11
2023-05-19T02:52:07.948Z,57.25
2023-05-19T02:54:09.826Z,57.41
2023-05-19T02:56:11.480Z,57.59
2023-05-19T02:58:13.083Z,57.65
2023-05-19T03:00:15.662Z,57.75
2023-05-19T03:02:18.235Z,57.96
2023-05-19T03:04:20.072Z,58.14
2023-05-19T03:06:23.325Z,57.89
2023-05-19T03:08:24.916Z,58.72
2023-05-19T03:10:26.573Z,58.96
2023-05-19T03:12:28.249Z,58.94
2023-05-19T03:14:30.553Z,58.62
2023-05-19T03:16:32.471Z,59.38
2023-05-19T03:18:34.916Z,59.15
2023-05-19T03:20:36.683Z,59.60
2023-05-19T03:22:38.650Z,59.29
2023-05-19T03:24:40.229Z,58.89
2023-05-19T03:26:42.743Z,58.98
2023-05-19T03:28:44.831Z,59.15
2023-05-19T03:30:46.492Z,59.38
2023-05-19T03:32:53.240Z,59.76
2023-05-19T03:34:54.961Z,59.57
2023-05-19T03:36:57.076Z,59.87
2023-05-19T03:38:59.215Z,60.05
2023-05-19T03:41:01.105Z,60.63
2023-05-19T03:43:02.823Z,60.19
2023-05-19T03:45:05.466Z,60.02
2023-05-19T03:47:07.411Z,60.08
2023-05-19T03:49:29.303Z,59.68
2023-05-19T03:51:49.518Z,59.91
2023-05-19T03:54:01.784Z,59.96
2023-05-19T03:56:03.588Z,59.77
2023-05-19T03:58:05.271Z,60.07
2023-05-19T04:00:08.225Z,59.92
2023-05-19T04:02:13.976Z,59.68
2023-05-19T04:04:16.192Z,59.41
2023-05-19T04:06:19.988Z,59.44
2023-05-19T04:08:21.684Z,59.45
2023-05-19T04:10:23.719Z,59.42
2023-05-19T04:12:25.462Z,59.42
2023-05-19T04:14:27.710Z,59.15
2023-05-19T04:16:29.514Z,59.23
2023-05-19T04:18:31.534Z,58.88
2023-05-19T04:20:33.541Z,58.78
2023-05-19T04:22:35.488Z,58.51
2023-05-19T04:24:37.176Z,58.83
2023-05-19T04:26:41.735Z,58.54
2023-05-19T04:28:44.650Z,58.52
2023-05-19T04:30:46.800Z,58.38
2023-05-19T04:32:52.121Z,58.13
2023-05-19T04:34:53.832Z,58.27
2023-05-19T04:36:59.822Z,57.94
2023-05-19T04:39:07.866Z,58.02
2023-05-19T04:41:10.891Z,57.54
2023-05-19T04:43:12.911Z,57.44
2023-05-19T04:45:15.472Z,57.40
2023-05-19T04:47:21.540Z,56.99
2023-05-19T04:49:28.533Z,57.03
2023-05-19T04:51:31.496Z,56.92
2023-05-19T04:53:37.432Z,56.95
2023-05-19T04:55:42.520Z,56.61
2023-05-19T04:57:44.172Z,56.49
2023-05-19T04:59:46.325Z,56.38
2023-05-19T05:01:48.032Z,56.34
2023-05-19T05:03:51.257Z,55.98
2023-05-19T05:05:53.005Z,55.77
2023-05-19T05:07:54.899Z,55.12
2023-05-19T05:09:58.158Z,55.03
2023-05-19T05:12:01.524Z,54.95
2023-05-19T05:14:04.004Z,54.42
2023-05-19T05:16:06.423Z,54.48
2023-05-19T05:18:08.652Z,53.78
2023-05-19T05:20:12.614Z,54.06
2023-05-19T05:22:14.561Z,54.12
2023-05-19T05:24:17.437Z,53.82
2023-05-19T05:26:30.317Z,53.37
2023-05-19T05:28:32.471Z,53.20
2023-05-19T05:30:35.086Z,52.23
2023-05-19T05:32:37.120Z,51.12
2023-05-19T05:34:45.115Z,52.19
2023-05-19T05:36:47.286Z,51.72
2023-05-19T05:38:49.529Z,52.38
2023-05-19T05:40:51.255Z,51.04
2023-05-19T05:42:52.925Z,51.31
2023-05-19T05:44:56.060Z,51.02
2023-05-19T05:46:58.540Z,51.50
2023-05-19T05:49:00.524Z,51.38
2023-05-19T05:51:02.386Z,50.64
2023-05-19T05:53:07.571Z,50.39
2023-05-19T05:55:13.029Z,50.96
2023-05-19T05:57:15.103Z,51.00
2023-05-19T05:59:17.728Z,51.54
2023-05-19T06:01:20.872Z,51.19
2023-05-19T06:03:24.588Z,50.18
2023-05-19T06:05:26.950Z,51.06
2023-05-19T06:07:29.337Z,50.05
2023-05-19T06:09:31.130Z,49.82
2023-05-19T06:11:33.057Z,50.76
2023-05-19T06:13:39.119Z,49.07
2023-05-19T06:15:43.668Z,50.08
2023-05-19T06:17:52.337Z,49.83
2023-05-19T06:19:54.338Z,50.18
2023-05-19T06:21:56.025Z,48.87
2023-05-19T06:23:57.773Z,49.52
2023-05-19T06:25:59.699Z,48.99
2023-05-19T06:28:01.900Z,48.84
2023-05-19T06:30:04.022Z,47.87
2023-05-19T06:32:11.366Z,47.15
2023-05-19T06:34:17.573Z,48.14
2023-05-19T06:36:21.337Z,48.50
2023-05-19T06:38:23.776Z,47.66
2023-05-19T06:40:25.636Z,47.33
2023-05-19T06:42:29.217Z,46.91
2023-05-19T06:44:39.785Z,47.55
2023-05-19T06:46:46.290Z,47.51
2023-05-19T06:48:48.284Z,46.67
2023-05-19T06:50:52.073Z,47.09
2023-05-19T06:52:54.312Z,46.86
2023-05-19T06:54:55.914Z,46.70
2023-05-19T06:56:57.699Z,46.43
2023-05-19T06:58:59.526Z,46.89
2023-05-19T07:01:06.682Z,46.76
2023-05-19T07:03:14.587Z,46.77
2023-05-19T07:05:16.279Z,46.93
2023-05-19T07:07:21.478Z,46.96
2023-05-19T07:09:23.318Z,44.44
2023-05-19T07:11:26.200Z,45.43
2023-05-19T07:13:28.467Z,44.98
2023-05-19T07:15:31.244Z,44.85
2023-05-19T07:17:33.828Z,46.92
2023-05-19T07:19:35.507Z,45.39
2023-05-19T07:21:37.323Z,45.64
2023-05-19T07:23:39.596Z,46.47
2023-05-19T07:25:41.560Z,46.09
2023-05-19T07:27:43.112Z,46.04
2023-05-19T07:29:45.996Z,44.71
2023-05-19T07:31:48.006Z,44.51
2023-05-19T07:33:50.348Z,45.49
2023-05-19T07:35:53.519Z,43.95
2023-05-19T07:37:55.067Z,42.79
2023-05-19T07:39:56.773Z,42.70
2023-05-19T07:41:59.186Z,41.67
2023-05-19T07:44:00.988Z,42.33
2023-05-19T07:46:02.761Z,42.05
2023-05-19T07:48:04.514Z,42.23
2023-05-19T07:50:06.757Z,41.82
2023-05-19T07:52:08.968Z,43.63
2023-05-19T07:54:10.858Z,42.35
2023-05-19T07:56:12.949Z,42.31
2023-05-19T07:58:15.831Z,41.80
2023-05-19T08:00:18.033Z,40.27
2023-05-19T08:02:19.571Z,41.58
2023-05-19T08:04:21.682Z,42.50
2023-05-19T08:06:25.122Z,43.73
2023-05-19T08:08:26.805Z,42.53
2023-05-19T08:10:29.050Z,42.39
2023-05-19T08:12:30.731Z,42.79
2023-05-19T08:14:33.311Z,41.99
2023-05-19T08:16:34.858Z,41.82
2023-05-19T08:18:36.446Z,41.48
2023-05-19T08:20:38.447Z,41.18
2023-05-19T08:22:40.329Z,41.33
2023-05-19T08:24:43.173Z,39.58
2023-05-19T08:26:44.736Z,39.79
2023-05-19T08:28:46.753Z,40.94
2023-05-19T08:30:50.760Z,41.35
2023-05-19T08:32:52.590Z,42.61
2023-05-19T08:34:54.425Z,40.30
2023-05-19T08:36:57.735Z,39.02
2023-05-19T08:38:59.368Z,39.19
2023-05-19T08:41:01.744Z,39.41
2023-05-19T08:43:03.628Z,38.51
2023-05-19T08:45:06.120Z,37.79
2023-05-19T08:47:12.765Z,37.16
2023-05-19T08:49:16.718Z,37.39
2023-05-19T08:51:33.534Z,38.22
2023-05-19T08:53:38.060Z,37.26
2023-05-19T08:56:04.606Z,37.43
2023-05-19T08:58:07.747Z,37.25
2023-05-19T09:00:12.084Z,36.89
2023-05-19T09:02:14.380Z,36.67
2023-05-19T09:04:17.302Z,35.47
2023-05-19T09:06:19.115Z,36.30
2023-05-19T09:08:20.841Z,36.52
2023-05-19T09:10:22.806Z,34.85
2023-05-19T09:12:24.681Z,34.89
2023-05-19T09:14:26.682Z,36.96
2023-05-19T09:16:30.171Z,37.16
2023-05-19T09:18:32.209Z,36.07
2023-05-19T09:20:38.436Z,36.24
2023-05-19T09:22:47.553Z,35.60
2023-05-19T09:24:49.565Z,35.19
2023-05-19T09:26:51.646Z,35.92
2023-05-19T09:28:58.166Z,35.87
2023-05-19T09:31:08.203Z,36.47
2023-05-19T09:33:10.138Z,35.94
2023-05-19T09:35:13.468Z,36.35
2023-05-19T09:37:16.606Z,36.02
2023-05-19T09:39:20.870Z,36.27
2023-05-19T09:41:23.487Z,37.57
2023-05-19T09:43:29.781Z,36.65
2023-05-19T09:45:31.659Z,36.01
2023-05-19T09:47:41.313Z,37.14
2023-05-19T09:49:47.315Z,35.84
2023-05-19T09:51:51.140Z,36.02
2023-05-19T09:53:53.463Z,36.67
2023-05-19T09:55:57.588Z,35.01
2023-05-19T09:58:04.209Z,34.46
2023-05-19T10:00:17.999Z,35.02
2023-05-19T10:02:21.685Z,35.06
2023-05-19T10:04:26.917Z,34.98
2023-05-19T10:06:29.769Z,36.11
2023-05-19T10:08:33.554Z,35.72
2023-05-19T10:10:35.451Z,36.10
2023-05-19T10:12:39.533Z,34.65
2023-05-19T10:14:41.533Z,34.55
2023-05-19T10:16:44.006Z,35.28
2023-05-19T10:18:51.576Z,34.68
2023-05-19T10:20:54.385Z,35.25
2023-05-19T10:22:56.297Z,34.35
2023-05-19T10:24:58.040Z,34.94
2023-05-19T10:27:05.210Z,35.79
2023-05-19T10:29:08.323Z,36.58
2023-05-19T10:31:15.426Z,36.75
2023-05-19T10:33:19.970Z,35.93
2023-05-19T10:35:56.037Z,35.25
2023-05-19T10:38:22.222Z,34.45
2023-05-19T10:40:36.850Z,33.69
2023-05-19T10:42:53.646Z,34.37
2023-05-19T10:45:09.180Z,34.05
2023-05-19T10:47:12.129Z,33.51
2023-05-19T10:49:21.811Z,33.15
2023-05-19T10:51:34.574Z,33.17
2023-05-19T10:53:46.367Z,31.75
2023-05-19T10:55:52.639Z,30.27
2023-05-19T10:57:56.695Z,31.24
2023-05-19T11:00:00.816Z,33.83
2023-05-19T11:02:04.773Z,33.86
2023-05-19T11:04:15.735Z,32.15
2023-05-19T11:06:29.082Z,31.11
2023-05-19T11:08:34.860Z,30.79
2023-05-19T11:10:36.620Z,31.19
2023-05-19T11:12:46.092Z,31.31
2023-05-19T11:14:48.533Z,32.41
2023-05-19T11:16:52.373Z,30.58
2023-05-19T11:18:56.405Z,29.97
2023-05-19T11:21:02.264Z,32.98
2023-05-19T11:23:05.945Z,32.23
2023-05-19T11:25:08.952Z,31.91
2023-05-19T11:27:32.800Z,32.11
2023-05-19T11:29:35.026Z,32.12
2023-05-19T11:31:37.715Z,32.29
2023-05-19T11:33:39.917Z,30.84
2023-05-19T11:35:42.686Z,32.33
2023-05-19T11:37:46.070Z,29.91
2023-05-19T11:39:48.045Z,30.36
2023-05-19T11:41:51.371Z,30.28
2023-05-19T11:43:53.284Z,31.51
2023-05-19T11:45:55.974Z,30.92
2023-05-19T11:48:02.660Z,29.70
2023-05-19T11:50:05.433Z,31.11
2023-05-19T11:52:07.619Z,30.16
2023-05-19T11:54:11.597Z,30.85
2023-05-19T11:56:15.114Z,28.67
2023-05-19T11:58:17.330Z,30.08
2023-05-19T12:00:23.037Z,29.05
2023-05-19T12:02:26.092Z,29.45
2023-05-19T12:04:27.858Z,29.38
2023-05-19T12:06:29.987Z,29.21
2023-05-19T12:08:31.945Z,27.79
2023-05-19T12:10:34.608Z,27.58
2023-05-19T12:12:36.555Z,28.17
2023-05-19T12:14:38.182Z,30.74
2023-05-19T12:16:39.998Z,30.24
2023-05-19T12:18:42.281Z,32.14
2023-05-19T12:20:44.387Z,32.73
2023-05-19T12:22:48.000Z,32.66
2023-05-19T12:24:50.925Z,31.54
2023-05-19T12:26:52.765Z,31.26
2023-05-19T12:28:54.921Z,32.25
2023-05-19T12:30:58.348Z,31.17
2023-05-19T12:33:01.646Z,33.20
2023-05-19T12:35:06.264Z,32.68
2023-05-19T12:37:08.200Z,31.02
2023-05-19T12:39:11.115Z,32.28
2023-05-19T12:41:12.956Z,33.30
2023-05-19T12:43:22.430Z,35.76
2023-05-19T12:45:26.258Z,33.83
2023-05-19T12:47:33.410Z,31.82
2023-05-19T12:49:35.175Z,30.58
2023-05-19T12:51:36.977Z,32.74
2023-05-19T12:53:38.699Z,31.29
2023-05-19T12:55:44.443Z,31.67
2023-05-19T12:57:51.792Z,31.78
2023-05-19T12:59:53.802Z,31.01
2023-05-19T13:01:59.095Z,30.70
2023-05-19T13:04:02.138Z,30.61
2023-05-19T13:06:05.756Z,30.74
2023-05-19T13:08:13.004Z,31.32
2023-05-19T13:10:14.886Z,28.95
2023-05-19T13:12:16.805Z,29.89
2023-05-19T13:14:18.731Z,29.73
2023-05-19T13:16:20.550Z,28.26
2023-05-19T13:18:22.335Z,28.52
2023-05-19T13:20:26.258Z,28.30
2023-05-19T13:22:29.407Z,28.00
2023-05-19T13:24:31.084Z,28.54
2023-05-19T13:26:32.765Z,28.50
2023-05-19T13:28:34.842Z,27.32
2023-05-19T13:30:38.944Z,27.15
2023-05-19T13:32:40.897Z,27.23
2023-05-19T13:34:42.511Z,27.47
2023-05-19T13:36:47.941Z,26.34
2023-05-19T13:38:49.859Z,27.32
2023-05-19T13:40:51.645Z,27.04
2023-05-19T13:42:54.867Z,27.56
2023-05-19T13:44:56.653Z,27.18
2023-05-19T13:46:58.401Z,28.30
2023-05-19T13:49:00.210Z,29.21
2023-05-19T13:51:02.235Z,27.82
2023-05-19T13:53:04.062Z,29.40
2023-05-19T13:55:06.934Z,29.23
2023-05-19T13:57:08.783Z,29.34
2023-05-19T13:59:10.588Z,29.36
2023-05-19T14:01:12.945Z,30.32
2023-05-19T14:03:16.098Z,30.76
2023-05-19T14:05:18.019Z,30.01
2023-05-19T14:07:20.101Z,28.58
2023-05-19T14:09:22.011Z,29.02
2023-05-19T14:11:23.675Z,29.78
2023-05-19T14:13:32.974Z,28.39
2023-05-19T14:15:38.446Z,29.97
2023-05-19T14:17:40.560Z,29.71
2023-05-19T14:19:42.320Z,28.41
2023-05-19T14:21:44.348Z,29.43
2023-05-19T14:23:46.336Z,28.71
2023-05-19T14:25:48.214Z,28.49
2023-05-19T14:27:50.523Z,29.51
2023-05-19T14:29:52.329Z,26.90
2023-05-19T14:31:54.311Z,28.75
2023-05-19T14:33:56.498Z,29.48
2023-05-19T14:36:01.544Z,30.00
2023-05-19T14:40:37.074Z,30.13
2023-05-19T14:42:38.840Z,29.50
2023-05-19T14:44:40.549Z,29.07
2023-05-19T14:46:42.247Z,28.27
2023-05-19T14:48:43.943Z,27.39
2023-05-19T14:50:48.162Z,27.06
2023-05-19T14:52:50.004Z,27.36
2023-05-19T14:54:51.599Z,27.15
2023-05-19T14:56:53.305Z,25.92
2023-05-19T14:58:55.089Z,25.92
2023-05-19T15:00:59.954Z,25.68
2023-05-19T15:03:01.791Z,25.45
2023-05-19T15:05:03.846Z,25.87
2023-05-19T15:07:10.328Z,24.56
2023-05-19T15:09:14.733Z,25.60
2023-05-19T15:11:16.442Z,24.81
2023-05-19T15:13:18.938Z,24.60
2023-05-19T15:15:20.796Z,25.37
2023-05-19T15:17:22.522Z,24.53
2023-05-19T15:19:24.316Z,24.24
2023-05-19T15:21:26.088Z,24.73
2023-05-19T15:23:28.270Z,24.57
2023-05-19T15:25:30.031Z,24.42
2023-05-19T15:27:31.827Z,24.33
2023-05-19T15:29:33.656Z,24.17
2023-05-19T15:31:38.015Z,25.91
2023-05-19T15:33:40.061Z,26.83
2023-05-19T15:35:41.812Z,25.47
2023-05-19T15:37:43.773Z,25.01
2023-05-19T15:39:45.572Z,25.10
2023-05-19T15:41:47.399Z,26.92
2023-05-19T15:43:49.023Z,26.53
2023-05-19T15:45:54.760Z,27.60
2023-05-19T15:47:56.553Z,28.08
2023-05-19T15:49:58.422Z,28.26
2023-05-19T15:52:00.319Z,28.09
2023-05-19T15:54:02.075Z,29.31
2023-05-19T15:56:04.917Z,28.98
2023-05-19T15:58:07.912Z,29.88
2023-05-19T16:00:11.430Z,30.16
2023-05-19T16:02:13.226Z,30.90
2023-05-19T16:04:15.267Z,30.98
2023-05-19T16:06:17.964Z,30.39
2023-05-19T16:08:19.848Z,31.06
2023-05-19T16:10:21.491Z,31.55
2023-05-19T16:12:24.142Z,32.06
2023-05-19T16:14:29.397Z,33.25
2023-05-19T16:16:31.799Z,33.28
2023-05-19T16:18:33.508Z,33.11
2023-05-19T16:20:35.423Z,33.34
2023-05-19T16:22:37.236Z,32.90
2023-05-19T16:24:38.951Z,32.73
2023-05-19T16:26:40.723Z,33.44
2023-05-19T16:28:42.405Z,32.99
2023-05-19T16:30:44.212Z,33.15
2023-05-19T16:32:46.687Z,34.28
2023-05-19T16:34:48.447Z,33.36
2023-05-19T16:36:50.290Z,33.54
2023-05-19T16:38:52.036Z,33.89
2023-05-19T16:40:53.734Z,33.13
2023-05-19T16:42:55.430Z,33.71
2023-05-19T16:44:57.257Z,33.87
2023-05-19T16:46:58.926Z,34.00
2023-05-19T16:49:01.651Z,33.63
2023-05-19T16:51:03.580Z,33.30
2023-05-19T16:53:05.297Z,33.02
2023-05-19T16:55:07.346Z,32.92
2023-05-19T16:57:09.741Z,33.31
2023-05-19T16:59:11.412Z,33.34
2023-05-19T17:01:13.239Z,34.80
2023-05-19T17:03:15.105Z,34.02
2023-05-19T17:05:16.919Z,33.84
2023-05-19T17:07:18.666Z,34.83
2023-05-19T17:09:25.010Z,34.96
2023-05-19T17:11:27.427Z,35.28
2023-05-19T17:13:33.481Z,34.74
2023-05-19T17:15:35.312Z,35.33
2023-05-19T17:17:37.310Z,35.78
2023-05-19T17:19:38.973Z,36.19
2023-05-19T17:21:40.771Z,35.83
2023-05-19T17:23:42.497Z,35.94
2023-05-19T17:25:44.210Z,36.12
2023-05-19T17:27:45.944Z,36.16
2023-05-19T17:29:47.767Z,36.28
2023-05-19T17:31:49.748Z,37.51
2023-05-19T17:33:51.432Z,38.12
2023-05-19T17:35:53.107Z,38.00
2023-05-19T17:37:55.043Z,37.99
2023-05-19T17:39:56.786Z,37.93
2023-05-19T17:41:58.991Z,38.34
2023-05-19T17:44:00.865Z,38.27
2023-05-19T17:46:03.080Z,38.65
2023-05-19T17:48:05.256Z,38.85
2023-05-19T17:50:07.561Z,38.63
2023-05-19T17:52:09.878Z,39.46
2023-05-19T17:54:11.932Z,39.87
2023-05-19T17:56:14.118Z,40.04
2023-05-19T17:58:16.449Z,39.58
2023-05-19T18:00:18.952Z,39.86
2023-05-19T18:02:20.789Z,40.52
2023-05-19T18:04:22.468Z,40.58
2023-05-19T18:06:25.498Z,41.03
2023-05-19T18:08:28.587Z,41.47
2023-05-19T18:10:34.053Z,41.32
2023-05-19T18:12:35.975Z,41.39
2023-05-19T18:14:37.696Z,41.82
2023-05-19T18:16:39.424Z,42.22
2023-05-19T18:18:43.531Z,42.82
2023-05-19T18:20:45.648Z,42.96
2023-05-19T18:22:50.072Z,42.68
2023-05-19T18:24:52.284Z,42.45
2023-05-19T18:26:54.154Z,42.68
2023-05-19T18:28:56.864Z,42.77
2023-05-19T18:31:03.909Z,42.85
2023-05-19T18:33:07.168Z,43.08
2023-05-19T18:35:09.361Z,43.66
2023-05-19T18:37:11.211Z,51.50
2023-05-19T18:39:12.942Z,46.24
2023-05-19T18:41:14.820Z,43.72
2023-05-19T18:43:17.020Z,43.43
2023-05-19T18:45:18.766Z,44.34
2023-05-19T18:47:22.665Z,43.63
2023-05-19T18:49:25.038Z,43.55
2023-05-19T18:54:25.611Z,44.21
2023-05-19T18:56:33.291Z,44.86
2023-05-19T18:58:37.139Z,44.66
2023-05-19T19:00:38.990Z,44.72
2023-05-19T19:02:40.761Z,44.60
2023-05-19T19:04:42.848Z,44.76
2023-05-19T19:06:44.484Z,44.90
2023-05-19T19:08:46.948Z,45.25
2023-05-19T19:10:51.603Z,46.41
2023-05-19T19:12:53.271Z,46.41
2023-05-19T19:14:54.888Z,46.55
2023-05-19T19:16:56.475Z,46.71
2023-05-19T19:18:58.226Z,46.80
2023-05-19T19:21:01.378Z,46.85
2023-05-19T19:23:06.508Z,47.60
2023-05-19T19:25:08.709Z,48.04
2023-05-19T19:27:10.649Z,48.85
2023-05-19T19:29:12.209Z,48.05
2023-05-19T19:31:13.802Z,47.89
2023-05-19T19:33:15.908Z,48.86
2023-05-19T19:35:17.670Z,48.32
2023-05-19T19:37:19.480Z,49.10
2023-05-19T19:39:21.109Z,48.32
2023-05-19T19:41:22.692Z,49.01
2023-05-19T19:43:24.380Z,49.02
2023-05-19T19:45:25.934Z,48.83
2023-05-19T19:47:27.509Z,49.79
2023-05-19T19:49:29.064Z,49.79
2023-05-19T19:51:31.650Z,50.31
2023-05-19T19:53:33.245Z,49.67
2023-05-19T19:55:34.868Z,50.53
2023-05-19T19:57:36.804Z,51.21
2023-05-19T19:59:38.365Z,51.81
2023-05-19T20:01:39.970Z,53.39
2023-05-19T20:03:42.205Z,53.18
2023-05-19T20:05:43.904Z,53.44
2023-05-19T20:07:45.525Z,53.74
2023-05-19T20:09:47.755Z,53.61
2023-05-19T20:11:49.361Z,53.63
2023-05-19T20:13:51.549Z,53.14
2023-05-19T20:15:53.164Z,52.70
2023-05-19T20:17:54.899Z,52.95
2023-05-19T20:19:56.742Z,53.11
2023-05-19T20:21:58.327Z,52.82
2023-05-19T20:24:00.391Z,53.14
2023-05-19T20:26:10.768Z,53.34
2023-05-19T20:28:13.839Z,53.31
2023-05-19T20:30:15.648Z,53.85
2023-05-19T20:32:17.241Z,53.28
2023-05-19T20:34:21.832Z,53.93
2023-05-19T20:36:24.970Z,53.48
2023-05-19T20:38:26.655Z,53.74
2023-05-19T20:40:29.686Z,53.82
2023-05-19T20:42:31.351Z,53.61
2023-05-19T20:44:32.967Z,53.97
2023-05-19T20:46:34.603Z,54.65
2023-05-19T20:48:36.709Z,54.05
2023-05-19T20:50:39.368Z,54.33
2023-05-19T20:52:41.180Z,53.93
2023-05-19T20:54:43.082Z,54.83
2023-05-19T20:56:44.615Z,54.64
2023-05-19T20:58:46.253Z,55.18
2023-05-19T21:00:53.298Z,54.98
2023-05-19T21:02:55.167Z,55.60
2023-05-19T21:04:56.836Z,55.53
2023-05-19T21:06:59.048Z,56.20
2023-05-19T21:09:03.627Z,55.49
2023-05-19T21:11:05.252Z,55.55
2023-05-19T21:13:06.820Z,55.37
2023-05-19T21:15:09.244Z,56.10
2023-05-19T21:17:11.018Z,55.72
2023-05-19T21:19:12.845Z,56.69
2023-05-19T21:21:14.797Z,56.24
2023-05-19T21:23:16.390Z,56.24
2023-05-19T21:25:18.404Z,56.76
2023-05-19T21:27:20.150Z,56.37
2023-05-19T21:29:21.710Z,56.48
2023-05-19T21:31:23.412Z,56.87
2023-05-19T21:33:25.170Z,57.16
2023-05-19T21:35:26.839Z,57.20
2023-05-19T21:37:28.438Z,57.19
2023-05-19T21:39:30.060Z,57.26
2023-05-19T21:41:32.386Z,58.06
2023-05-19T21:43:33.885Z,57.63
2023-05-19T21:45:35.447Z,58.19
2023-05-19T21:47:37.019Z,58.30
2023-05-19T21:49:40.142Z,57.92
2023-05-19T21:51:41.767Z,57.62
2023-05-19T21:53:43.325Z,57.88
2023-05-19T21:55:44.916Z,58.14
2023-05-19T21:57:46.542Z,58.55
2023-05-19T21:59:48.245Z,58.41
2023-05-19T22:01:50.291Z,58.65
2023-05-19T22:03:52.961Z,58.55
2023-05-19T22:05:55.214Z,58.31
2023-05-19T22:07:56.798Z,58.45
2023-05-19T22:09:58.430Z,58.61
2023-05-19T22:11:59.956Z,59.23
2023-05-19T22:14:01.774Z,59.26
2023-05-19T22:16:04.657Z,59.43
2023-05-19T22:18:06.761Z,59.39
2023-05-19T22:20:09.438Z,59.58
2023-05-19T22:22:14.086Z,59.77
2023-05-19T22:24:18.394Z,59.54
2023-05-19T22:26:20.094Z,60.17
2023-05-19T22:28:21.776Z,59.96
2023-05-19T22:30:23.581Z,60.05
2023-05-19T22:32:25.778Z,60.52
2023-05-19T22:34:27.816Z,60.27
2023-05-19T22:36:29.978Z,60.22
2023-05-19T22:38:31.555Z,60.91
2023-05-19T22:40:33.492Z,60.98
2023-05-19T22:42:35.263Z,60.77
2023-05-19T22:44:36.802Z,61.32
2023-05-19T22:46:38.510Z,60.87
2023-05-19T22:48:40.132Z,61.50
2023-05-19T22:50:41.842Z,61.72
2023-05-19T22:52:43.392Z,61.33
2023-05-19T22:54:44.931Z,61.88
2023-05-19T22:56:48.626Z,61.91
2023-05-19T22:58:50.417Z,62.31
2023-05-19T23:00:52.197Z,62.89
2023-05-19T23:02:53.936Z,63.18
2023-05-19T23:04:56.002Z,62.85
2023-05-19T23:06:57.539Z,63.21
2023-05-19T23:09:03.598Z,63.26
2023-05-19T23:11:05.363Z,63.99
2023-05-19T23:13:08.133Z,64.59
2023-05-19T23:15:10.911Z,64.84
2023-05-19T23:17:12.518Z,65.25
2023-05-19T23:19:14.564Z,65.82
2023-05-19T23:21:16.413Z,65.07
2023-05-19T23:23:17.945Z,65.00
2023-05-19T23:25:19.868Z,65.24
2023-05-19T23:27:21.425Z,65.41
2023-05-19T23:29:23.611Z,65.91
2023-05-19T23:31:25.228Z,65.27
2023-05-19T23:33:26.876Z,66.08
2023-05-19T23:35:28.451Z,67.08
2023-05-19T23:37:29.981Z,66.68
2023-05-19T23:39:31.589Z,66.73
2023-05-19T23:41:33.330Z,66.47
2023-05-19T23:43:34.913Z,67.46
2023-05-19T23:45:36.493Z,67.54
2023-05-19T23:47:38.183Z,66.73
2023-05-19T23:49:39.793Z,67.23
2023-05-19T23:51:41.382Z,68.21
2023-05-19T23:53:42.917Z,68.49
2023-05-19T23:55:44.559Z,69.13
2023-05-19T23:57:46.126Z,68.30
2023-05-19T23:59:47.906Z,69.19
